Senai International Airport Senai MY
ICAO: WMKJ
IATA: JHB
Category: Medium
Scheduled Services: Yes

Elevation: 135 ft
TransAlt. 11000 ft.

Airport Communications:
LUMPUR CON:132.2
JOHOR TWR:124.7
ATIS:126.6
JOHOR TWR:121.8
JOHOR TWR:122.5

WMKJ Zoom In..

If you have problems with the map follow the link
https://www.worldairports.se/pages/airport.php?
ICAO=WMKJ

Runways:

(A) RW 16 length 12467 ft width 148 ft
ILS 109.90 / hdg 159

(B) RW 34 length 12467 ft width 148 ft
---- / hdg 339

Location; WMKJ
Day. 05 / Time. 15.00 Zulu
* QNH: 1012
* Temperature: 25° c. 77°f.
* Wind from: VRB° Speed 02 kn.
Dewpoint: 23° c.
Visibility: 10 km or more.
Clouds: Few 2300 ft.
Clouds: Broken 3000 ft.

WMKJ 051500Z VRB02KT 9999 FEW023 BKN300 25/23 Q1012


Wind From VRB°
Speed 02 kn.

 
 
jpsmedia worldairports.se 2019   terms of use